Time;durP1;ratioP1;P1;durP2;ratioP2;P2;SDS_P1;SDS_P2;PMS_P1;PMS_P2;Temp;Humidity;BMP_temperature;BMP_pressure;BME280_temperature;BME280_humidity;BME280_pressure;Samples;Min_cycle;Max_cycle;Signal;HPM_P1;HPM_P2
2024/02/16 00:01:05;;;;;;;7.80;5.80;;;9.10;16.60;;;;;;5012957;28;20203;-71
2024/02/16 00:03:31;;;;;;;10.10;6.87;;;9.10;15.90;;;;;;5014017;28;20561;-68
2024/02/16 00:05:56;;;;;;;9.50;6.30;;;9.10;15.90;;;;;;5015417;28;20623;-69
2024/02/16 00:08:22;;;;;;;6.87;5.00;;;9.10;15.40;;;;;;5016046;28;20709;-69
2024/02/16 00:10:48;;;;;;;9.57;6.23;;;9.20;15.60;;;;;;5015073;28;20302;-69
2024/02/16 00:13:14;;;;;;;8.90;5.50;;;9.10;16.20;;;;;;5015964;28;20653;-69
2024/02/16 00:15:39;;;;;;;9.90;5.80;;;9.20;15.20;;;;;;5015309;28;20187;-70
2024/02/16 00:18:06;;;;;;;6.20;5.43;;;9.10;16.80;;;;;;5015759;28;20419;-69
2024/02/16 00:20:31;;;;;;;9.20;6.23;;;9.00;16.50;;;;;;5013666;28;20389;-69
2024/02/16 00:22:57;;;;;;;8.00;5.90;;;9.00;17.40;;;;;;5014996;28;20459;-69
2024/02/16 00:25:23;;;;;;;6.50;5.43;;;9.00;16.60;;;;;;5014541;28;20180;-69
2024/02/16 00:27:49;;;;;;;6.67;5.40;;;9.00;16.10;;;;;;5011913;28;20423;-68
2024/02/16 00:30:17;;;;;;;9.00;6.10;;;9.10;15.70;;;;;;5012531;28;20473;-68
2024/02/16 00:32:45;;;;;;;7.80;5.83;;;9.00;16.00;;;;;;5013856;28;20222;-69
2024/02/16 00:35:11;;;;;;;7.93;5.83;;;9.00;16.00;;;;;;5015463;28;20415;-69
2024/02/16 00:37:37;;;;;;;6.33;5.37;;;8.90;16.50;;;;;;5013960;28;20418;-70
2024/02/16 00:40:04;;;;;;;5.20;4.23;;;9.00;16.40;;;;;;5013457;28;20593;-70
2024/02/16 00:42:31;;;;;;;6.33;4.90;;;9.00;15.80;;;;;;5012320;28;20423;-68
2024/02/16 00:44:57;;;;;;;5.03;4.40;;;9.00;15.80;;;;;;5013962;28;20411;-70
2024/02/16 00:47:23;;;;;;;6.00;4.20;;;9.00;15.80;;;;;;5013880;28;20498;-70
2024/02/16 00:49:49;;;;;;;6.70;4.40;;;9.10;14.50;;;;;;5013232;28;20574;-69
2024/02/16 00:52:15;;;;;;;9.03;4.30;;;9.10;14.20;;;;;;5012886;28;20411;-70
2024/02/16 00:54:40;;;;;;;6.00;4.70;;;9.10;14.20;;;;;;5012537;28;20414;-69
2024/02/16 00:57:06;;;;;;;7.20;4.50;;;9.10;14.20;;;;;;5012627;28;20186;-68
2024/02/16 00:59:32;;;;;;;6.87;4.10;;;9.20;13.20;;;;;;5012737;28;20267;-69
2024/02/16 01:01:58;;;;;;;8.10;4.90;;;9.20;12.70;;;;;;5011864;28;20183;-70
2024/02/16 01:04:23;;;;;;;5.30;4.60;;;9.30;12.30;;;;;;5011396;28;20643;-70
2024/02/16 01:06:49;;;;;;;7.97;5.60;;;9.30;12.10;;;;;;5012419;28;20411;-70
2024/02/16 01:09:15;;;;;;;6.30;5.37;;;9.30;11.80;;;;;;5011127;28;20184;-69
2024/02/16 01:11:42;;;;;;;5.43;4.27;;;9.30;11.80;;;;;;5012993;28;20203;-69
2024/02/16 01:14:11;;;;;;;6.97;4.33;;;9.30;11.60;;;;;;5012695;28;20452;-70
2024/02/16 01:16:36;;;;;;;6.63;5.67;;;9.30;11.20;;;;;;5012667;28;20502;-69
2024/02/16 01:19:02;;;;;;;6.67;4.90;;;9.30;11.30;;;;;;5009888;28;20438;-70
2024/02/16 01:21:27;;;;;;;7.90;4.17;;;9.30;11.50;;;;;;5011396;28;20223;-68
2024/02/16 01:23:53;;;;;;;6.10;3.97;;;9.30;10.80;;;;;;5011880;28;20243;-68
2024/02/16 01:26:19;;;;;;;6.27;4.60;;;9.30;11.00;;;;;;5010597;28;20183;-68
2024/02/16 01:28:44;;;;;;;7.67;5.97;;;9.30;10.90;;;;;;5012024;28;20183;-69
2024/02/16 01:31:10;;;;;;;6.13;4.27;;;9.20;11.00;;;;;;5012163;28;20207;-68
2024/02/16 01:33:37;;;;;;;8.93;5.53;;;9.10;12.40;;;;;;5027356;28;20199;-68
2024/02/16 01:36:03;;;;;;;7.50;5.67;;;9.20;12.80;;;;;;5012352;28;20180;-70
2024/02/16 01:38:29;;;;;;;7.10;5.30;;;9.20;12.80;;;;;;5012344;28;20517;-70
2024/02/16 01:40:54;;;;;;;7.30;4.47;;;9.30;13.00;;;;;;5012553;28;20939;-70
2024/02/16 01:43:21;;;;;;;9.37;4.97;;;9.30;12.60;;;;;;5013075;28;20208;-69
2024/02/16 01:45:46;;;;;;;7.43;4.83;;;9.40;11.50;;;;;;5011438;28;20184;-70
2024/02/16 01:48:13;;;;;;;7.90;5.73;;;9.30;12.50;;;;;;5010840;28;20418;-71
2024/02/16 01:50:39;;;;;;;7.07;5.27;;;9.30;12.10;;;;;;5035383;22;20236;-70
2024/02/16 01:53:05;;;;;;;7.03;5.00;;;9.40;12.20;;;;;;5011549;28;20419;-70
2024/02/16 01:55:31;;;;;;;7.87;5.10;;;9.40;12.30;;;;;;5011755;28;20774;-69
2024/02/16 01:57:59;;;;;;;9.43;6.57;;;9.40;12.00;;;;;;5010965;28;20241;-69
2024/02/16 02:00:25;;;;;;;10.77;6.00;;;9.30;12.30;;;;;;5010153;28;20674;-68
2024/02/16 02:02:52;;;;;;;9.30;5.90;;;9.40;12.90;;;;;;5008801;28;20525;-68
2024/02/16 02:05:18;;;;;;;7.90;5.13;;;9.40;12.20;;;;;;5010357;28;20802;-70
2024/02/16 02:07:43;;;;;;;9.40;6.10;;;9.40;12.30;;;;;;5013137;28;20449;-70
2024/02/16 02:10:12;;;;;;;8.90;5.77;;;9.50;11.70;;;;;;5013391;28;20514;-69
2024/02/16 02:12:38;;;;;;;8.83;4.77;;;9.50;11.40;;;;;;5013744;28;20605;-69
2024/02/16 02:15:04;;;;;;;8.87;5.53;;;9.50;11.70;;;;;;5013823;28;20447;-70
2024/02/16 02:17:30;;;;;;;6.70;4.80;;;9.50;11.00;;;;;;5013996;28;20910;-69
2024/02/16 02:19:55;;;;;;;7.63;5.47;;;9.50;10.90;;;;;;5013297;28;20480;-69
2024/02/16 02:22:21;;;;;;;8.23;5.47;;;9.50;10.70;;;;;;5013652;28;20179;-69
2024/02/16 02:24:51;;;;;;;12.40;5.10;;;9.50;11.20;;;;;;5013390;28;20218;-69
2024/02/16 02:27:17;;;;;;;6.87;4.70;;;9.40;11.60;;;;;;5013631;28;20898;-68
2024/02/16 02:29:44;;;;;;;7.93;5.37;;;9.50;11.40;;;;;;5013299;28;20411;-69
2024/02/16 02:32:09;;;;;;;7.50;4.90;;;9.50;11.00;;;;;;5013365;28;20223;-69
2024/02/16 02:34:38;;;;;;;7.47;4.67;;;9.50;10.90;;;;;;5013403;28;20902;-69
2024/02/16 02:37:04;;;;;;;10.33;5.43;;;9.50;11.80;;;;;;5013426;28;20895;-69
2024/02/16 02:39:31;;;;;;;9.40;6.10;;;9.50;11.50;;;;;;5013050;28;20510;-70
2024/02/16 02:41:57;;;;;;;6.63;5.13;;;9.40;11.70;;;;;;5013193;28;20445;-69
2024/02/16 02:44:26;;;;;;;5.60;4.40;;;9.40;12.10;;;;;;5013213;28;20454;-69
2024/02/16 02:46:52;;;;;;;9.70;5.40;;;9.40;12.10;;;;;;5013127;28;20450;-69
2024/02/16 02:49:18;;;;;;;6.27;3.93;;;9.40;12.30;;;;;;5012842;28;20450;-69
2024/02/16 02:51:44;;;;;;;8.30;5.30;;;9.30;12.70;;;;;;5012873;28;20211;-69
2024/02/16 02:54:09;;;;;;;8.80;5.60;;;9.30;12.00;;;;;;5012937;28;20423;-68
2024/02/16 02:56:35;;;;;;;7.03;4.03;;;9.30;12.50;;;;;;5013145;28;20231;-68
2024/02/16 02:59:01;;;;;;;4.40;3.07;;;9.30;12.90;;;;;;5012780;28;20271;-69
2024/02/16 03:01:26;;;;;;;4.87;4.23;;;9.30;12.60;;;;;;5012875;28;20196;-69
2024/02/16 03:03:52;;;;;;;9.73;3.83;;;9.30;12.50;;;;;;5012810;28;20662;-69
2024/02/16 03:06:21;;;;;;;6.23;3.67;;;9.30;11.70;;;;;;5012907;28;20168;-69
2024/02/16 03:08:47;;;;;;;5.17;4.07;;;9.30;11.60;;;;;;5012568;28;20184;-70
2024/02/16 03:11:12;;;;;;;7.00;4.00;;;9.30;11.90;;;;;;5012626;28;20434;-69
2024/02/16 03:13:38;;;;;;;8.23;4.30;;;9.30;12.00;;;;;;5012717;28;20584;-69
2024/02/16 03:16:04;;;;;;;4.13;3.40;;;9.30;11.60;;;;;;5012713;28;20180;-69
2024/02/16 03:18:36;;;;;;;4.77;3.23;;;9.30;11.10;;;;;;5011254;28;20184;-69
2024/02/16 03:21:02;;;;;;;3.63;2.83;;;9.40;11.10;;;;;;5012397;28;20260;-69
2024/02/16 03:23:28;;;;;;;4.10;2.87;;;9.40;11.20;;;;;;5012415;28;20479;-69
2024/02/16 03:25:53;;;;;;;4.80;3.10;;;9.40;10.10;;;;;;5012452;28;20259;-70
2024/02/16 03:28:20;;;;;;;3.77;2.40;;;9.40;10.00;;;;;;5010765;28;20523;-70
2024/02/16 03:30:46;;;;;;;3.60;2.40;;;9.40;10.00;;;;;;5012132;28;20191;-69
2024/02/16 03:33:13;;;;;;;4.37;2.87;;;9.50;10.10;;;;;;5012299;28;20417;-69
2024/02/16 03:35:39;;;;;;;4.73;2.93;;;9.50;9.50;;;;;;5012243;28;20882;-69
2024/02/16 03:38:05;;;;;;;5.73;3.37;;;9.50;10.10;;;;;;5011841;28;20411;-72
2024/02/16 03:40:31;;;;;;;5.67;3.20;;;9.40;9.50;;;;;;5011883;28;20437;-68
2024/02/16 03:42:57;;;;;;;6.50;3.50;;;9.40;9.80;;;;;;5012027;28;20457;-68
2024/02/16 03:45:23;;;;;;;3.90;2.83;;;9.40;9.50;;;;;;5012042;28;20172;-68
2024/02/16 03:47:49;;;;;;;6.47;3.77;;;9.40;9.70;;;;;;5011977;28;20407;-68
2024/02/16 03:50:15;;;;;;;4.73;3.13;;;9.50;8.60;;;;;;5010305;28;20827;-69
2024/02/16 03:52:40;;;;;;;4.43;2.70;;;9.40;8.90;;;;;;5011764;28;20184;-68
2024/02/16 03:55:07;;;;;;;3.93;2.33;;;9.40;9.00;;;;;;5010503;28;20422;-68
2024/02/16 03:57:33;;;;;;;4.93;2.63;;;9.30;9.40;;;;;;5011879;28;20855;-67
2024/02/16 03:59:59;;;;;;;4.40;3.00;;;9.40;7.80;;;;;;5011549;28;20494;-68
2024/02/16 04:02:24;;;;;;;4.40;2.47;;;9.30;7.70;;;;;;5011735;28;20172;-68
2024/02/16 04:04:50;;;;;;;3.90;2.40;;;9.40;7.50;;;;;;5011662;28;20454;-68
2024/02/16 04:07:16;;;;;;;3.23;2.30;;;9.40;7.20;;;;;;5011629;28;20634;-69
2024/02/16 04:09:42;;;;;;;5.33;3.10;;;9.30;7.40;;;;;;5011478;28;20176;-68
2024/02/16 04:12:07;;;;;;;3.37;2.00;;;9.40;7.10;;;;;;5011654;28;20431;-69
2024/02/16 04:14:33;;;;;;;3.40;1.97;;;9.40;6.80;;;;;;5011592;28;20628;-68
2024/02/16 04:16:59;;;;;;;4.63;2.60;;;9.40;6.60;;;;;;5011400;28;20654;-68
2024/02/16 04:19:29;;;;;;;5.77;3.20;;;9.40;5.60;;;;;;5011238;28;20532;-68
2024/02/16 04:21:55;;;;;;;4.83;2.63;;;9.40;6.10;;;;;;5011265;28;20435;-68
2024/02/16 04:24:21;;;;;;;8.73;2.13;;;9.40;6.20;;;;;;5011364;28;20470;-67
2024/02/16 04:26:46;;;;;;;6.67;2.83;;;9.30;6.80;;;;;;5011345;28;20415;-68
2024/02/16 04:29:12;;;;;;;6.67;2.90;;;9.30;7.30;;;;;;5010728;28;20172;-69
2024/02/16 04:31:45;;;;;;;4.70;3.07;;;9.30;7.80;;;;;;5011247;28;20192;-69
2024/02/16 04:34:11;;;;;;;4.10;2.80;;;9.30;8.00;;;;;;5011277;28;20175;-68
2024/02/16 04:36:37;;;;;;;3.13;2.30;;;9.30;8.20;;;;;;5011119;28;20513;-69
2024/02/16 04:39:03;;;;;;;5.33;2.80;;;9.30;8.10;;;;;;5011254;28;20418;-69
2024/02/16 04:41:28;;;;;;;4.37;2.60;;;9.20;7.80;;;;;;5011236;28;20301;-68
2024/02/16 04:43:54;;;;;;;3.37;2.17;;;9.20;7.90;;;;;;5011076;28;20242;-69
2024/02/16 04:46:19;;;;;;;4.10;2.93;;;9.20;8.40;;;;;;5011196;28;20175;-68
2024/02/16 04:48:45;;;;;;;3.10;2.40;;;9.20;7.90;;;;;;5010868;28;20602;-69
2024/02/16 04:51:11;;;;;;;3.37;2.10;;;9.20;8.20;;;;;;5010782;28;20300;-69
2024/02/16 04:53:37;;;;;;;4.70;2.40;;;9.20;7.90;;;;;;5011223;28;20171;-68
2024/02/16 04:56:03;;;;;;;5.20;2.80;;;9.20;7.80;;;;;;5011086;28;20537;-69
2024/02/16 04:58:28;;;;;;;3.07;1.83;;;9.20;7.90;;;;;;5010640;28;20302;-69
2024/02/16 05:00:54;;;;;;;3.50;1.67;;;9.20;8.60;;;;;;5010827;28;20353;-68
2024/02/16 05:03:19;;;;;;;4.40;2.80;;;9.20;8.10;;;;;;5010997;28;20243;-68
2024/02/16 05:05:45;;;;;;;4.93;2.33;;;9.10;8.60;;;;;;5011034;28;20179;-68
2024/02/16 05:08:11;;;;;;;4.37;2.17;;;9.10;9.10;;;;;;5010998;28;20270;-68
2024/02/16 05:10:37;;;;;;;3.00;2.23;;;9.10;9.00;;;;;;5009225;28;20603;-69
2024/02/16 05:13:03;;;;;;;3.30;2.13;;;9.10;9.40;;;;;;5010967;28;20936;-69
2024/02/16 05:15:28;;;;;;;4.03;2.57;;;9.20;7.50;;;;;;5010759;28;20498;-69
2024/02/16 05:17:54;;;;;;;4.00;2.63;;;9.20;7.30;;;;;;5010541;28;20422;-69
2024/02/16 05:20:20;;;;;;;10.80;3.30;;;9.20;6.70;;;;;;5010656;28;20460;-68
2024/02/16 05:22:46;;;;;;;3.97;2.57;;;9.30;6.20;;;;;;5010828;28;20803;-69
2024/02/16 05:25:13;;;;;;;4.13;2.47;;;9.30;5.50;;;;;;5010597;28;20234;-69
2024/02/16 05:27:39;;;;;;;5.50;2.43;;;9.40;5.30;;;;;;5022174;28;20410;-68
2024/02/16 05:30:07;;;;;;;3.43;2.70;;;9.50;4.80;;;;;;5030111;28;20409;-68
2024/02/16 05:32:37;;;;;;;3.70;2.00;;;9.50;4.00;;;;;;5030154;28;20410;-69
2024/02/16 05:35:16;;;;;;;5.20;2.80;;;9.50;3.60;;;;;;5029194;28;20508;-69
2024/02/16 05:37:49;;;;;;;4.60;2.27;;;9.60;2.80;;;;;;5030216;28;20417;-69
2024/02/16 05:40:26;;;;;;;5.40;2.37;;;9.60;2.20;;;;;;5028501;28;20814;-69
2024/02/16 05:42:52;;;;;;;4.03;2.03;;;9.50;3.20;;;;;;5033617;28;20428;-69
2024/02/16 05:45:19;;;;;;;3.00;1.93;;;9.50;3.40;;;;;;5034051;28;20414;-68
2024/02/16 05:47:45;;;;;;;5.23;2.30;;;9.50;3.30;;;;;;5034218;28;20421;-69
2024/02/16 05:50:12;;;;;;;6.43;2.77;;;9.50;3.10;;;;;;5033636;28;20449;-70
2024/02/16 05:52:38;;;;;;;3.23;2.20;;;9.50;3.10;;;;;;5034002;28;20410;-66
2024/02/16 05:55:06;;;;;;;5.90;3.10;;;9.50;3.60;;;;;;5033029;28;20509;-70
2024/02/16 05:57:31;;;;;;;6.00;4.13;;;9.50;4.00;;;;;;5034674;28;20445;-72
2024/02/16 05:59:57;;;;;;;5.53;3.50;;;9.50;4.90;;;;;;5033640;28;20523;-71
2024/02/16 06:02:25;;;;;;;12.60;4.33;;;9.50;5.30;;;;;;5034386;28;20209;-71
2024/02/16 06:04:51;;;;;;;6.30;4.60;;;9.40;5.60;;;;;;5033947;28;20481;-72
2024/02/16 06:07:17;;;;;;;6.37;3.60;;;9.30;6.20;;;;;;5033047;28;20418;-71
2024/02/16 06:09:42;;;;;;;5.50;4.17;;;9.30;7.00;;;;;;5036493;28;20440;-72
2024/02/16 06:12:09;;;;;;;6.13;4.50;;;9.20;7.50;;;;;;5036187;28;20269;-72
2024/02/16 06:14:36;;;;;;;5.17;3.97;;;9.20;8.00;;;;;;5036338;28;20677;-71
2024/02/16 06:17:08;;;;;;;6.47;4.23;;;9.20;8.00;;;;;;5033934;28;20535;-71
2024/02/16 06:19:33;;;;;;;6.50;4.17;;;9.30;8.20;;;;;;5033541;28;20417;-69
2024/02/16 06:21:59;;;;;;;10.53;4.27;;;9.20;8.40;;;;;;5033870;28;20426;-71
2024/02/16 06:24:25;;;;;;;7.50;4.10;;;9.20;8.70;;;;;;5033622;28;20214;-71
2024/02/16 06:26:54;;;;;;;6.97;4.40;;;9.20;8.60;;;;;;5033472;28;20628;-70
2024/02/16 06:29:19;;;;;;;6.03;4.27;;;9.20;8.90;;;;;;5033204;28;20179;-72
2024/02/16 06:31:47;;;;;;;5.50;3.90;;;9.20;9.40;;;;;;5033133;28;20517;-71
2024/02/16 06:34:13;;;;;;;4.90;3.93;;;9.20;9.90;;;;;;5033271;28;20201;-70
2024/02/16 06:36:38;;;;;;;8.33;3.27;;;9.20;9.30;;;;;;5033167;28;20417;-70
2024/02/16 06:39:04;;;;;;;6.73;2.80;;;9.10;8.90;;;;;;5032827;28;20418;-70
2024/02/16 06:41:30;;;;;;;5.30;3.10;;;9.10;8.50;;;;;;5032708;28;20212;-67
2024/02/16 06:43:55;;;;;;;4.37;2.20;;;9.10;7.80;;;;;;5032593;28;20207;-67
2024/02/16 06:46:22;;;;;;;6.23;2.60;;;9.10;7.70;;;;;;5021074;28;20184;-69
2024/02/16 06:48:47;;;;;;;5.67;3.03;;;9.10;7.20;;;;;;4996405;28;20255;-68
2024/02/16 06:51:13;;;;;;;4.43;2.37;;;9.10;7.10;;;;;;5008092;28;20985;-69
2024/02/16 06:53:38;;;;;;;3.97;2.70;;;9.10;7.00;;;;;;5008828;28;20191;-69
2024/02/16 06:56:04;;;;;;;5.47;3.33;;;9.20;5.40;;;;;;5011492;28;20741;-69
2024/02/16 06:58:30;;;;;;;6.03;3.40;;;9.20;4.60;;;;;;5012824;28;20172;-69
2024/02/16 07:00:56;;;;;;;5.93;3.20;;;9.20;3.60;;;;;;5013099;28;20224;-70
2024/02/16 07:03:22;;;;;;;3.80;2.63;;;9.30;2.70;;;;;;5027923;28;20200;-70
2024/02/16 07:05:48;;;;;;;4.87;2.97;;;9.40;2.50;;;;;;5013013;28;20422;-69
2024/02/16 07:08:13;;;;;;;4.20;2.53;;;9.50;1.70;;;;;;5012669;28;20176;-69
2024/02/16 07:10:39;;;;;;;3.80;2.57;;;9.50;1.60;;;;;;5012387;28;20662;-70
2024/02/16 07:13:04;;;;;;;4.73;2.37;;;9.60;1.20;;;;;;5012877;28;20176;-70
2024/02/16 07:15:30;;;;;;;4.70;2.40;;;9.60;1.20;;;;;;5012852;28;20203;-68
2024/02/16 07:17:56;;;;;;;4.00;2.70;;;9.60;1.00;;;;;;5012448;28;20188;-69
2024/02/16 07:20:22;;;;;;;3.40;2.33;;;9.70;1.00;;;;;;5012453;28;20222;-69
2024/02/16 07:22:51;;;;;;;7.97;2.90;;;9.70;1.00;;;;;;5012496;28;20422;-69
2024/02/16 07:25:17;;;;;;;3.20;2.30;;;9.80;1.00;;;;;;5012441;28;20263;-69
2024/02/16 07:27:43;;;;;;;5.30;2.90;;;9.80;1.00;;;;;;5012450;28;20407;-69
2024/02/16 07:30:10;;;;;;;4.00;2.53;;;9.80;1.00;;;;;;5012034;28;20438;-69
2024/02/16 07:32:36;;;;;;;4.40;2.80;;;9.80;1.00;;;;;;5011059;28;20502;-69
2024/02/16 07:35:03;;;;;;;3.90;2.70;;;9.90;1.00;;;;;;5012662;28;20513;-69
2024/02/16 07:37:28;;;;;;;4.10;2.20;;;9.90;1.00;;;;;;5012606;28;20214;-69
2024/02/16 07:39:54;;;;;;;4.53;2.60;;;10.00;1.00;;;;;;5011985;28;20423;-69
2024/02/16 07:42:20;;;;;;;6.20;2.90;;;10.00;1.00;;;;;;5010833;28;20193;-69
2024/02/16 07:44:46;;;;;;;4.57;2.30;;;10.00;1.00;;;;;;5010528;28;20204;-69
2024/02/16 07:47:12;;;;;;;4.07;2.20;;;10.00;1.00;;;;;;5010491;28;20430;-69
2024/02/16 07:49:39;;;;;;;6.23;2.90;;;10.00;1.00;;;;;;5010788;28;20176;-70
2024/02/16 07:52:05;;;;;;;3.23;2.30;;;10.00;1.00;;;;;;5026567;23;20589;-69
2024/02/16 07:54:30;;;;;;;5.63;3.37;;;10.00;1.00;;;;;;5016092;28;20506;-69
2024/02/16 07:56:59;;;;;;;4.30;3.20;;;10.00;1.00;;;;;;5002305;28;20489;-68
2024/02/16 07:59:25;;;;;;;6.37;2.50;;;10.00;1.00;;;;;;5010886;28;20180;-71
2024/02/16 08:01:50;;;;;;;4.30;2.77;;;10.00;1.00;;;;;;5010370;28;20505;-71
2024/02/16 08:04:16;;;;;;;6.33;3.50;;;10.10;1.00;;;;;;5011432;28;20238;-70
2024/02/16 08:06:42;;;;;;;5.90;2.90;;;10.10;1.00;;;;;;5013306;28;20206;-71
2024/02/16 08:09:07;;;;;;;3.43;2.57;;;10.00;1.00;;;;;;5012682;28;20218;-72
2024/02/16 08:11:33;;;;;;;4.20;2.50;;;10.10;1.00;;;;;;5014309;28;20177;-75
2024/02/16 08:14:00;;;;;;;5.93;3.80;;;10.10;1.00;;;;;;5015194;28;20220;-70
2024/02/16 08:16:27;;;;;;;6.10;3.77;;;10.20;1.00;;;;;;5011199;28;20219;-69
2024/02/16 08:18:52;;;;;;;7.00;3.57;;;10.20;1.00;;;;;;5015320;28;20442;-70
2024/02/16 08:21:18;;;;;;;8.27;3.50;;;10.20;1.00;;;;;;5013858;28;20438;-72
2024/02/16 08:23:44;;;;;;;4.60;3.70;;;10.20;1.00;;;;;;5010504;28;20203;-75
2024/02/16 08:26:09;;;;;;;5.37;3.63;;;10.10;1.00;;;;;;5011769;28;20180;-71
2024/02/16 08:28:35;;;;;;;5.53;3.83;;;10.10;1.00;;;;;;5011792;28;20236;-70
2024/02/16 08:31:00;;;;;;;4.80;3.37;;;10.20;1.00;;;;;;5011146;28;20186;-71
2024/02/16 08:33:26;;;;;;;8.17;3.60;;;10.20;1.00;;;;;;5026848;28;20203;-70
2024/02/16 08:35:51;;;;;;;6.07;4.20;;;10.20;1.00;;;;;;5026650;28;20550;-71
2024/02/16 08:38:17;;;;;;;4.40;3.03;;;10.10;1.00;;;;;;5011477;28;20179;-70
2024/02/16 08:40:42;;;;;;;5.07;3.30;;;10.10;1.00;;;;;;5011801;28;20179;-71
2024/02/16 08:43:08;;;;;;;6.43;4.27;;;10.00;1.00;;;;;;5011634;28;20366;-71
2024/02/16 08:45:34;;;;;;;9.40;4.50;;;10.10;1.80;;;;;;5012752;28;20182;-71
2024/02/16 08:48:02;;;;;;;7.47;4.30;;;10.40;1.00;;;;;;5011142;28;20220;-71
2024/02/16 08:50:27;;;;;;;8.07;4.43;;;10.80;1.00;;;;;;5011464;28;20175;-71
2024/02/16 08:52:55;;;;;;;6.13;3.53;;;11.10;1.00;;;;;;5010024;28;20904;-72
2024/02/16 08:55:28;;;;;;;6.43;3.57;;;11.50;1.00;;;;;;5011483;28;20419;-72
2024/02/16 08:57:57;;;;;;;8.37;5.10;;;11.80;1.00;;;;;;5011354;28;20415;-71
2024/02/16 09:00:23;;;;;;;7.50;3.90;;;12.00;1.00;;;;;;5011453;28;20494;-71
2024/02/16 09:02:53;;;;;;;5.40;4.20;;;11.90;1.00;;;;;;5011162;28;20433;-72
2024/02/16 09:05:19;;;;;;;8.10;4.20;;;12.00;1.00;;;;;;5010980;28;20456;-71
2024/02/16 09:07:51;;;;;;;6.60;3.90;;;12.10;1.00;;;;;;5010465;28;20821;-72
2024/02/16 09:10:16;;;;;;;6.10;4.67;;;12.10;1.00;;;;;;5009471;28;20415;-72
2024/02/16 09:12:48;;;;;;;6.00;4.50;;;12.20;1.00;;;;;;5011042;28;20522;-72
2024/02/16 09:15:14;;;;;;;7.93;4.10;;;12.20;1.00;;;;;;5011762;28;20175;-70
2024/02/16 09:17:39;;;;;;;6.77;3.27;;;12.30;1.00;;;;;;5015397;28;20509;-71
2024/02/16 09:20:09;;;;;;;5.30;3.40;;;12.40;1.00;;;;;;5013930;28;20263;-72
2024/02/16 09:22:35;;;;;;;4.13;3.30;;;12.50;1.00;;;;;;5015127;28;20235;-72
2024/02/16 09:25:02;;;;;;;4.50;3.80;;;12.60;1.00;;;;;;5015476;28;20466;-71
2024/02/16 09:27:28;;;;;;;6.40;3.90;;;12.60;1.00;;;;;;5013843;28;20933;-71
2024/02/16 09:29:54;;;;;;;9.60;4.00;;;12.80;1.00;;;;;;5013502;28;20525;-72
2024/02/16 09:32:19;;;;;;;5.60;2.93;;;12.90;1.00;;;;;;5013546;28;20206;-72
2024/02/16 09:34:45;;;;;;;4.10;3.13;;;13.00;1.00;;;;;;5013670;28;20180;-72
2024/02/16 09:37:12;;;;;;;5.10;2.90;;;13.20;1.00;;;;;;5013795;28;20180;-71
2024/02/16 09:39:38;;;;;;;5.27;3.53;;;13.20;1.00;;;;;;5015105;28;20365;-72
2024/02/16 09:42:04;;;;;;;6.30;3.07;;;13.30;1.00;;;;;;5013627;28;21023;-71
2024/02/16 09:44:30;;;;;;;4.47;3.40;;;13.40;1.00;;;;;;5015217;28;20195;-71
2024/02/16 09:47:00;;;;;;;5.57;3.00;;;13.60;1.00;;;;;;5014624;28;20187;-72
2024/02/16 09:49:26;;;;;;;4.00;3.03;;;13.70;1.00;;;;;;5015944;28;20476;-72
2024/02/16 09:51:55;;;;;;;5.63;3.00;;;13.80;1.00;;;;;;5016571;28;20957;-71
2024/02/16 09:54:20;;;;;;;4.57;2.70;;;14.00;1.00;;;;;;5021334;28;20200;-71
2024/02/16 09:56:46;;;;;;;3.97;3.50;;;14.10;1.00;;;;;;5021825;28;20430;-71
2024/02/16 09:59:12;;;;;;;2.97;2.40;;;14.20;1.00;;;;;;5015048;28;20172;-72
2024/02/16 10:01:38;;;;;;;7.10;3.70;;;14.20;1.00;;;;;;5011272;28;20569;-73
2024/02/16 10:04:07;;;;;;;4.60;2.67;;;14.30;1.00;;;;;;5011209;28;20218;-73
2024/02/16 10:06:33;;;;;;;8.43;3.03;;;14.50;1.00;;;;;;5010617;28;20203;-71
2024/02/16 10:08:58;;;;;;;3.90;3.20;;;14.70;1.00;;;;;;5008982;28;20823;-72
2024/02/16 10:11:30;;;;;;;3.47;3.00;;;15.00;1.00;;;;;;5010766;28;20215;-72
2024/02/16 10:14:03;;;;;;;6.53;3.50;;;15.20;1.00;;;;;;5008881;28;20188;-71
2024/02/16 10:16:30;;;;;;;5.00;3.73;;;15.50;1.00;;;;;;5009727;28;20426;-71
2024/02/16 10:19:03;;;;;;;4.07;3.60;;;15.90;1.00;;;;;;5009576;28;20422;-71
2024/02/16 10:21:29;;;;;;;8.33;2.87;;;16.30;1.00;;;;;;5010371;28;20851;-72
2024/02/16 10:24:00;;;;;;;2.97;2.47;;;16.60;1.00;;;;;;5013316;28;20454;-72
2024/02/16 10:26:26;;;;;;;3.13;2.67;;;17.10;1.00;;;;;;5013920;28;20997;-72
2024/02/16 10:28:56;;;;;;;3.93;2.43;;;17.30;1.00;;;;;;5013127;28;20422;-70
2024/02/16 10:31:28;;;;;;;3.97;2.20;;;17.40;1.00;;;;;;5013964;28;20199;-70
2024/02/16 10:34:09;;;;;;;6.00;2.10;;;17.30;1.00;;;;;;5013852;28;20427;-70
2024/02/16 10:36:36;;;;;;;6.40;2.17;;;17.40;1.00;;;;;;5014032;28;20909;-71
2024/02/16 10:39:07;;;;;;;2.93;2.40;;;17.50;1.00;;;;;;5013657;28;20981;-71
2024/02/16 10:41:34;;;;;;;3.80;2.20;;;17.90;1.00;;;;;;5012854;28;20431;-71
2024/02/16 10:44:02;;;;;;;2.70;2.30;;;17.90;1.00;;;;;;5013598;28;20467;-70
2024/02/16 10:46:27;;;;;;;6.50;2.23;;;18.50;1.00;;;;;;5029115;28;20415;-71
2024/02/16 10:48:53;;;;;;;4.17;2.90;;;18.70;1.00;;;;;;5013682;28;20423;-71
2024/02/16 10:51:40;;;;;;;3.47;2.30;;;18.90;1.00;;;;;;5013504;28;20266;-71
2024/02/16 10:54:07;;;;;;;3.87;2.73;;;19.40;1.00;;;;;;5013524;28;20191;-71
2024/02/16 10:56:37;;;;;;;2.50;2.30;;;19.40;1.00;;;;;;5013735;28;20765;-72
2024/02/16 10:59:08;;;;;;;4.33;2.80;;;19.10;1.00;;;;;;5028764;28;20423;-70
2024/02/16 11:01:41;;;;;;;3.13;2.70;;;18.90;1.00;;;;;;5013820;28;20506;-71
2024/02/16 11:04:22;;;;;;;3.87;2.27;;;19.00;1.00;;;;;;5012223;28;20459;-72
2024/02/16 11:06:51;;;;;;;2.90;2.40;;;19.00;1.00;;;;;;5012324;28;20419;-71
2024/02/16 11:09:30;;;;;;;3.50;2.83;;;18.70;1.00;;;;;;5013188;28;20415;-71
2024/02/16 11:12:00;;;;;;;3.73;2.47;;;18.50;1.00;;;;;;5013666;28;20757;-71
2024/02/16 11:14:39;;;;;;;3.30;2.50;;;18.20;1.00;;;;;;5013546;28;20857;-70
2024/02/16 11:17:12;;;;;;;3.80;2.80;;;18.00;1.00;;;;;;5011830;28;20431;-71
2024/02/16 11:19:40;;;;;;;3.27;2.40;;;18.00;1.00;;;;;;5013530;28;20426;-71
2024/02/16 11:22:11;;;;;;;3.50;2.10;;;17.90;1.00;;;;;;5013151;28;20450;-72
2024/02/16 11:24:38;;;;;;;3.10;2.33;;;18.00;1.00;;;;;;5013347;28;20517;-71
2024/02/16 11:27:05;;;;;;;2.97;2.30;;;17.80;1.00;;;;;;5013548;28;20461;-70
2024/02/16 11:29:38;;;;;;;4.63;2.40;;;17.70;1.00;;;;;;5013321;28;20519;-72
2024/02/16 11:32:05;;;;;;;2.67;2.20;;;17.50;1.00;;;;;;5013019;28;20506;-77
2024/02/16 11:34:33;;;;;;;3.47;2.30;;;17.50;1.00;;;;;;5012958;28;20959;-71
2024/02/16 11:37:00;;;;;;;3.20;2.13;;;17.50;1.00;;;;;;5013059;28;20450;-71
2024/02/16 11:39:26;;;;;;;10.90;3.10;;;17.60;1.00;;;;;;5011667;28;20899;-71
2024/02/16 11:42:11;;;;;;;4.23;2.80;;;17.70;1.00;;;;;;5011584;28;20446;-70
2024/02/16 11:44:39;;;;;;;2.47;1.70;;;17.70;1.00;;;;;;5012737;28;20462;-71
2024/02/16 11:47:12;;;;;;;3.30;2.40;;;17.50;1.00;;;;;;5012721;28;20415;-71
2024/02/16 11:49:39;;;;;;;3.23;2.03;;;17.50;1.00;;;;;;5011099;28;20541;-71
2024/02/16 11:52:05;;;;;;;4.10;2.40;;;17.50;1.00;;;;;;5012811;28;20967;-71
2024/02/16 11:54:31;;;;;;;2.57;2.10;;;17.50;1.00;;;;;;5012623;28;20810;-71
2024/02/16 11:56:58;;;;;;;3.30;2.23;;;17.50;1.00;;;;;;5012655;28;20430;-71
2024/02/16 11:59:24;;;;;;;4.30;2.90;;;17.60;1.00;;;;;;5012180;28;20442;-72
2024/02/16 12:01:53;;;;;;;3.10;2.80;;;17.70;1.00;;;;;;5012210;28;20466;-70
2024/02/16 12:04:24;;;;;;;4.43;3.10;;;17.80;1.00;;;;;;5011992;28;20481;-71
2024/02/16 12:06:56;;;;;;;6.17;2.03;;;17.70;1.00;;;;;;5012222;28;20505;-71
2024/02/16 12:09:22;;;;;;;5.10;2.47;;;17.80;1.00;;;;;;5012034;28;20933;-70
2024/02/16 12:11:52;;;;;;;3.87;2.10;;;17.70;1.00;;;;;;5011790;28;20941;-71
2024/02/16 12:14:20;;;;;;;3.00;2.07;;;18.00;1.00;;;;;;5012195;28;20501;-71
2024/02/16 12:16:56;;;;;;;2.40;1.90;;;18.00;1.00;;;;;;5010626;28;20894;-70
2024/02/16 12:19:22;;;;;;;3.27;2.50;;;17.90;1.00;;;;;;5012045;28;20942;-71
2024/02/16 12:21:52;;;;;;;3.10;1.70;;;18.00;1.00;;;;;;5011875;28;20438;-71
2024/02/16 12:24:19;;;;;;;3.57;2.50;;;18.30;1.00;;;;;;5011847;28;20474;-71
2024/02/16 12:26:44;;;;;;;5.67;3.00;;;18.60;1.00;;;;;;5011941;28;20897;-70
2024/02/16 12:29:13;;;;;;;5.33;2.20;;;18.40;1.00;;;;;;5011774;28;20445;-70
2024/02/16 12:31:43;;;;;;;4.90;2.60;;;18.50;1.00;;;;;;5010213;28;20184;-72
2024/02/16 12:34:10;;;;;;;3.40;2.60;;;18.30;1.00;;;;;;5010318;28;20861;-71
2024/02/16 12:36:39;;;;;;;3.17;2.03;;;18.30;1.00;;;;;;5011634;28;20426;-71
2024/02/16 12:39:06;;;;;;;3.30;2.47;;;18.10;1.00;;;;;;5011377;28;20415;-71
2024/02/16 12:41:35;;;;;;;6.97;3.23;;;17.90;1.00;;;;;;5011575;28;20472;-71
2024/02/16 12:44:03;;;;;;;4.87;2.63;;;18.20;1.00;;;;;;5010555;28;20508;-70
2024/02/16 12:46:29;;;;;;;5.47;2.80;;;18.30;1.00;;;;;;5010181;28;20454;-70
2024/02/16 12:48:55;;;;;;;3.00;2.57;;;18.20;1.00;;;;;;5011599;28;20415;-71
2024/02/16 12:51:20;;;;;;;2.87;2.40;;;18.50;1.00;;;;;;5010005;28;20187;-72
2024/02/16 12:53:46;;;;;;;7.43;2.50;;;18.70;1.00;;;;;;5011208;28;20196;-71
2024/02/16 12:56:12;;;;;;;3.90;2.20;;;18.60;1.00;;;;;;5026567;28;20462;-71
2024/02/16 12:58:38;;;;;;;2.77;2.40;;;18.60;1.00;;;;;;5011201;28;20207;-70